Time;durP1;ratioP1;P1;durP2;ratioP2;P2;SDS_P1;SDS_P2;PMS_P1;PMS_P2;Temp;Humidity;BMP_temperature;BMP_pressure;BME280_temperature;BME280_humidity;BME280_pressure;Samples;Min_cycle;Max_cycle;Signal;HPM_P1;HPM_P2
2022/01/09 00:01:04;;;;;;;0.30;0.30;;;4.30;99.90;;;;;;5073431;28;20451;-68
2022/01/09 00:03:29;;;;;;;0.30;0.30;;;4.30;99.90;;;;;;5073560;28;20200;-69
2022/01/09 00:05:55;;;;;;;0.40;0.40;;;4.20;99.90;;;;;;5073417;28;20556;-68
2022/01/09 00:08:21;;;;;;;0.30;0.30;;;4.10;99.90;;;;;;5073369;28;20218;-68
2022/01/09 00:10:47;;;;;;;0.33;0.33;;;4.20;99.90;;;;;;5073377;28;20185;-69
2022/01/09 00:13:13;;;;;;;0.40;0.40;;;4.20;99.90;;;;;;5073388;28;20165;-69
2022/01/09 00:15:39;;;;;;;0.30;0.30;;;4.30;99.90;;;;;;5073344;28;20193;-69
2022/01/09 00:18:05;;;;;;;0.30;0.30;;;4.40;99.90;;;;;;5072997;28;20166;-69
2022/01/09 00:20:31;;;;;;;0.33;0.33;;;4.50;99.90;;;;;;5073121;28;20698;-69
2022/01/09 00:22:57;;;;;;;0.40;0.40;;;4.50;99.90;;;;;;5073286;28;20183;-69
2022/01/09 00:25:24;;;;;;;0.30;0.30;;;4.30;99.90;;;;;;5073236;28;20400;-69
2022/01/09 00:27:51;;;;;;;0.38;0.38;;;4.40;99.90;;;;;;5073150;28;20439;-69
2022/01/09 00:30:19;;;;;;;0.40;0.40;;;4.20;99.90;;;;;;5073007;28;20239;-69
2022/01/09 00:32:45;;;;;;;0.32;0.32;;;4.20;99.90;;;;;;5073238;28;20173;-69
2022/01/09 00:35:13;;;;;;;0.30;0.30;;;4.30;99.90;;;;;;5073246;28;20184;-69
2022/01/09 00:37:39;;;;;;;0.30;0.30;;;4.40;99.90;;;;;;5073557;28;20439;-69
2022/01/09 00:40:06;;;;;;;0.30;0.30;;;4.30;99.90;;;;;;5072934;28;20227;-69
2022/01/09 00:42:32;;;;;;;0.30;0.30;;;4.40;99.90;;;;;;5073184;28;20431;-69
2022/01/09 00:44:58;;;;;;;0.30;0.30;;;4.30;99.90;;;;;;5073176;28;20200;-69
2022/01/09 00:47:24;;;;;;;0.30;0.30;;;4.20;99.90;;;;;;5073099;28;20985;-69
2022/01/09 00:49:49;;;;;;;0.30;0.30;;;4.40;99.90;;;;;;5072791;28;20181;-69
2022/01/09 00:52:15;;;;;;;0.30;0.30;;;4.50;99.90;;;;;;5072988;28;20177;-69
2022/01/09 01:00:39;;;;;;;0.30;0.30;;;4.30;99.90;;;;;;4992495;28;20326;-66
2022/01/09 01:03:05;;;;;;;0.40;0.40;;;4.00;99.90;;;;;;4991942;28;20608;-67
2022/01/09 01:05:31;;;;;;;0.30;0.30;;;4.10;99.90;;;;;;4992063;28;20169;-67
2022/01/09 01:07:57;;;;;;;0.40;0.40;;;4.00;99.90;;;;;;4993380;28;20223;-67
2022/01/09 01:10:22;;;;;;;0.30;0.30;;;4.10;99.90;;;;;;4995809;28;20208;-67
2022/01/09 01:12:49;;;;;;;0.33;0.33;;;4.10;99.90;;;;;;4996858;28;20256;-67
2022/01/09 01:15:14;;;;;;;0.30;0.30;;;4.10;99.90;;;;;;4997238;28;20168;-67
2022/01/09 01:17:41;;;;;;;0.30;0.30;;;4.20;99.90;;;;;;4996749;28;20210;-67
2022/01/09 01:20:07;;;;;;;0.30;0.30;;;4.40;99.90;;;;;;4997155;28;20235;-67
2022/01/09 01:22:33;;;;;;;0.32;0.32;;;4.40;99.90;;;;;;4995778;28;20721;-67
2022/01/09 01:25:00;;;;;;;0.30;0.30;;;4.50;99.90;;;;;;4995646;28;20180;-67
2022/01/09 01:27:26;;;;;;;0.30;0.30;;;4.40;99.90;;;;;;4996391;28;20661;-67
2022/01/09 01:29:52;;;;;;;0.30;0.30;;;4.20;99.90;;;;;;4995647;28;20275;-67
2022/01/09 01:32:18;;;;;;;0.40;0.40;;;4.20;99.90;;;;;;4996992;28;20224;-67
2022/01/09 01:34:43;;;;;;;0.37;0.37;;;4.10;99.90;;;;;;4996820;28;20172;-67
2022/01/09 01:37:09;;;;;;;0.37;0.37;;;4.20;99.90;;;;;;4996346;28;20230;-67
2022/01/09 01:39:35;;;;;;;0.40;0.40;;;4.30;99.90;;;;;;4996581;28;20172;-67
2022/01/09 01:42:00;;;;;;;0.30;0.30;;;4.30;99.90;;;;;;4996613;28;20194;-67
2022/01/09 01:44:40;;;;;;;0.30;0.30;;;4.30;99.90;;;;;;4996588;28;20168;-67
2022/01/09 01:47:07;;;;;;;0.30;0.30;;;4.50;99.90;;;;;;4996311;28;20269;-67
2022/01/09 01:49:32;;;;;;;0.40;0.40;;;4.50;99.90;;;;;;4996572;28;20610;-67
2022/01/09 01:51:58;;;;;;;0.40;0.40;;;4.40;99.90;;;;;;4996379;28;20260;-67
2022/01/09 01:54:25;;;;;;;0.30;0.30;;;4.40;99.90;;;;;;4996349;28;20649;-67
2022/01/09 01:56:51;;;;;;;0.30;0.30;;;4.60;99.90;;;;;;4996331;28;20195;-67
2022/01/09 01:59:16;;;;;;;0.30;0.30;;;4.70;99.90;;;;;;4996154;28;20168;-68
2022/01/09 02:01:42;;;;;;;0.30;0.30;;;4.40;99.90;;;;;;4996347;28;20784;-68
2022/01/09 02:04:08;;;;;;;0.30;0.30;;;4.20;99.90;;;;;;4996013;28;20561;-67
2022/01/09 02:06:35;;;;;;;0.30;0.30;;;3.90;99.90;;;;;;4995848;28;20282;-67
2022/01/09 02:09:04;;;;;;;0.40;0.40;;;3.90;99.90;;;;;;4995977;28;20252;-67
2022/01/09 02:11:32;;;;;;;0.30;0.30;;;3.90;99.90;;;;;;4996113;28;20634;-67
2022/01/09 02:13:59;;;;;;;0.30;0.30;;;3.70;99.90;;;;;;4996104;28;20179;-67
2022/01/09 02:16:26;;;;;;;0.40;0.40;;;3.60;99.90;;;;;;4994449;28;20196;-67
2022/01/09 02:18:52;;;;;;;0.30;0.30;;;3.50;99.90;;;;;;4993786;28;20179;-67
2022/01/09 02:21:18;;;;;;;0.30;0.30;;;3.50;99.90;;;;;;4994703;28;20672;-68
2022/01/09 02:23:47;;;;;;;0.30;0.30;;;3.60;99.90;;;;;;4995461;28;20487;-67
2022/01/09 02:26:17;;;;;;;0.30;0.30;;;3.70;99.90;;;;;;4995503;28;20581;-68
2022/01/09 02:28:43;;;;;;;0.30;0.30;;;3.90;99.90;;;;;;4995839;28;20587;-68
2022/01/09 02:31:09;;;;;;;0.30;0.30;;;3.90;99.90;;;;;;4995679;28;20237;-68
2022/01/09 02:33:35;;;;;;;0.40;0.40;;;3.90;99.90;;;;;;4996015;28;20408;-70
2022/01/09 02:36:01;;;;;;;0.30;0.30;;;3.90;99.90;;;;;;4995399;28;20226;-70
2022/01/09 02:38:26;;;;;;;0.30;0.30;;;3.70;99.90;;;;;;4995611;28;20629;-70
2022/01/09 02:40:53;;;;;;;0.33;0.33;;;3.50;99.90;;;;;;4995515;28;20860;-69
2022/01/09 02:43:20;;;;;;;0.40;0.40;;;3.30;99.90;;;;;;4995732;28;20404;-70
2022/01/09 02:45:52;;;;;;;0.40;0.40;;;3.30;99.90;;;;;;4995253;28;20188;-69
2022/01/09 02:48:17;;;;;;;0.30;0.30;;;3.40;99.90;;;;;;4995635;28;20166;-70
2022/01/09 02:50:55;;;;;;;0.30;0.30;;;3.40;99.90;;;;;;4995555;28;20172;-70
2022/01/09 02:53:21;;;;;;;0.30;0.30;;;3.40;99.90;;;;;;4995560;28;20172;-70
2022/01/09 02:55:48;;;;;;;0.30;0.30;;;3.20;99.90;;;;;;4995109;28;20243;-70
2022/01/09 02:58:14;;;;;;;0.30;0.30;;;3.50;99.90;;;;;;4995376;28;20176;-70
2022/01/09 03:00:43;;;;;;;0.30;0.30;;;3.70;99.90;;;;;;4995227;28;20266;-70
2022/01/09 03:03:10;;;;;;;0.30;0.30;;;3.80;99.90;;;;;;4994973;28;20205;-70
2022/01/09 03:05:36;;;;;;;0.40;0.40;;;3.70;99.90;;;;;;4994868;28;20180;-70
2022/01/09 03:08:01;;;;;;;0.30;0.30;;;3.60;99.90;;;;;;4995122;28;20169;-70
2022/01/09 03:10:27;;;;;;;0.30;0.30;;;3.30;99.90;;;;;;4995111;28;20720;-70
2022/01/09 03:12:56;;;;;;;0.30;0.30;;;3.20;99.90;;;;;;4995086;28;20668;-70
2022/01/09 03:15:22;;;;;;;0.30;0.30;;;3.40;99.90;;;;;;4995257;28;20806;-70
2022/01/09 03:17:48;;;;;;;0.35;0.35;;;3.60;99.90;;;;;;4994844;28;20648;-70
2022/01/09 03:20:22;;;;;;;0.30;0.30;;;3.60;99.90;;;;;;4994800;28;20203;-69
2022/01/09 03:22:48;;;;;;;0.32;0.32;;;3.60;99.90;;;;;;4994982;28;20207;-70
2022/01/09 03:25:14;;;;;;;0.30;0.30;;;3.70;99.90;;;;;;4994895;28;20211;-70
2022/01/09 03:27:42;;;;;;;0.30;0.30;;;3.80;99.90;;;;;;4994387;28;20201;-70
2022/01/09 03:30:09;;;;;;;0.30;0.30;;;3.90;99.90;;;;;;4994537;28;20180;-70
2022/01/09 03:32:36;;;;;;;0.30;0.30;;;4.00;99.90;;;;;;4994353;28;20179;-69
2022/01/09 03:35:04;;;;;;;0.30;0.30;;;4.10;99.90;;;;;;4994814;28;20180;-70
2022/01/09 03:37:30;;;;;;;0.30;0.30;;;4.20;99.90;;;;;;4994432;28;20231;-70
2022/01/09 03:39:55;;;;;;;0.30;0.30;;;4.30;99.90;;;;;;4994508;28;20231;-70
2022/01/09 03:42:21;;;;;;;0.30;0.30;;;4.10;99.90;;;;;;4994645;28;20164;-70
2022/01/09 03:44:47;;;;;;;0.30;0.30;;;4.10;99.90;;;;;;4994602;28;20168;-70
2022/01/09 03:47:12;;;;;;;0.30;0.30;;;4.00;99.90;;;;;;4994279;28;20247;-70
2022/01/09 03:49:38;;;;;;;0.33;0.33;;;3.90;99.90;;;;;;4994431;28;20231;-70
2022/01/09 03:52:04;;;;;;;0.30;0.30;;;3.80;99.90;;;;;;4994600;28;20252;-70
2022/01/09 03:54:29;;;;;;;0.30;0.30;;;3.80;99.90;;;;;;4994386;28;20255;-69
2022/01/09 03:56:55;;;;;;;0.30;0.30;;;3.60;99.90;;;;;;4994017;28;20269;-70
2022/01/09 03:59:22;;;;;;;0.33;0.33;;;3.50;99.90;;;;;;4994272;28;20168;-70
2022/01/09 04:01:50;;;;;;;0.30;0.30;;;3.60;99.90;;;;;;4994151;28;20231;-70
2022/01/09 04:04:16;;;;;;;0.40;0.40;;;3.60;99.90;;;;;;4994207;28;20553;-70
2022/01/09 04:06:50;;;;;;;0.30;0.30;;;3.60;99.90;;;;;;4993931;28;20205;-69
2022/01/09 04:09:26;;;;;;;0.30;0.30;;;3.50;99.90;;;;;;4994313;28;20561;-70
2022/01/09 04:11:56;;;;;;;0.30;0.30;;;3.60;99.90;;;;;;4994521;28;20350;-69
2022/01/09 04:14:22;;;;;;;0.30;0.30;;;3.60;99.90;;;;;;4994130;28;20164;-70
2022/01/09 04:16:47;;;;;;;0.30;0.30;;;3.50;99.90;;;;;;4993820;28;20198;-70
2022/01/09 04:19:13;;;;;;;0.30;0.30;;;3.70;99.90;;;;;;4994004;28;20222;-70
2022/01/09 04:21:41;;;;;;;0.30;0.30;;;3.60;99.90;;;;;;4992760;28;20751;-69
2022/01/09 04:24:07;;;;;;;0.30;0.30;;;3.70;99.90;;;;;;4993973;28;20187;-70
2022/01/09 04:26:33;;;;;;;0.30;0.30;;;3.80;99.90;;;;;;4993776;28;20191;-69
2022/01/09 04:28:59;;;;;;;0.40;0.40;;;3.80;99.90;;;;;;4993967;28;20888;-70
2022/01/09 04:31:24;;;;;;;0.30;0.30;;;3.90;99.90;;;;;;4992815;28;20172;-70
2022/01/09 04:33:50;;;;;;;0.30;0.30;;;3.90;99.90;;;;;;4994054;28;20264;-70
2022/01/09 04:36:15;;;;;;;0.30;0.30;;;3.90;99.90;;;;;;4992473;28;20708;-69
2022/01/09 04:38:41;;;;;;;0.30;0.30;;;3.90;99.90;;;;;;4993976;28;20179;-70
2022/01/09 04:41:07;;;;;;;0.30;0.30;;;4.00;99.90;;;;;;4994194;28;20214;-70
2022/01/09 04:43:33;;;;;;;0.30;0.30;;;4.00;99.90;;;;;;4997142;28;20175;-70
2022/01/09 04:45:58;;;;;;;0.30;0.30;;;4.00;99.90;;;;;;4997619;28;20184;-70
2022/01/09 04:48:24;;;;;;;0.30;0.30;;;4.00;99.90;;;;;;4997928;28;20179;-70
2022/01/09 04:50:52;;;;;;;0.30;0.30;;;3.80;99.90;;;;;;4996492;28;20255;-70
2022/01/09 04:53:18;;;;;;;0.30;0.30;;;3.60;99.90;;;;;;4997578;28;20492;-70
2022/01/09 04:55:50;;;;;;;0.30;0.30;;;3.30;99.90;;;;;;4997288;28;20680;-70
2022/01/09 04:58:16;;;;;;;0.30;0.30;;;3.50;99.90;;;;;;4997819;28;20173;-70
2022/01/09 05:00:43;;;;;;;0.30;0.30;;;3.70;99.90;;;;;;4997432;28;20236;-69
2022/01/09 05:03:12;;;;;;;0.30;0.30;;;3.80;99.90;;;;;;4997483;28;20183;-69
2022/01/09 05:05:38;;;;;;;0.40;0.40;;;4.00;99.90;;;;;;4997270;28;20196;-70
2022/01/09 05:08:04;;;;;;;0.30;0.30;;;4.10;99.90;;;;;;4997281;28;20160;-70
2022/01/09 05:10:30;;;;;;;0.30;0.30;;;4.10;99.90;;;;;;4997278;28;20664;-70
2022/01/09 05:12:55;;;;;;;0.30;0.30;;;4.00;99.90;;;;;;4997251;28;20762;-70
2022/01/09 05:15:22;;;;;;;0.30;0.30;;;3.90;99.90;;;;;;4997297;28;20179;-70
2022/01/09 05:17:50;;;;;;;0.40;0.40;;;3.90;99.90;;;;;;4997148;28;20183;-70
2022/01/09 05:20:16;;;;;;;0.30;0.30;;;4.00;99.90;;;;;;4997106;28;20231;-70
2022/01/09 05:22:42;;;;;;;0.30;0.30;;;4.00;99.90;;;;;;4997007;28;20219;-70
2022/01/09 05:25:08;;;;;;;0.40;0.40;;;4.00;99.90;;;;;;4997029;28;20691;-70
2022/01/09 05:27:35;;;;;;;0.40;0.40;;;3.80;99.90;;;;;;4996794;28;20191;-70
2022/01/09 05:30:01;;;;;;;0.40;0.40;;;3.80;99.90;;;;;;4997039;28;20184;-69
2022/01/09 05:32:26;;;;;;;0.40;0.40;;;3.70;99.90;;;;;;4996950;28;20178;-70
2022/01/09 05:34:52;;;;;;;0.30;0.30;;;3.70;99.90;;;;;;4995473;28;20552;-70
2022/01/09 05:37:18;;;;;;;0.30;0.30;;;3.80;99.90;;;;;;4995264;28;20206;-70
2022/01/09 05:39:44;;;;;;;0.30;0.30;;;4.00;99.90;;;;;;4996618;28;20259;-70
2022/01/09 05:42:12;;;;;;;0.30;0.30;;;3.80;99.90;;;;;;4996828;28;20179;-70
2022/01/09 05:44:38;;;;;;;0.30;0.30;;;3.60;99.90;;;;;;4996832;28;20490;-70
2022/01/09 05:47:04;;;;;;;0.30;0.30;;;3.60;99.90;;;;;;4996186;28;20278;-70
2022/01/09 05:49:30;;;;;;;0.32;0.32;;;3.60;99.90;;;;;;4996423;28;20176;-70
2022/01/09 05:51:56;;;;;;;0.30;0.30;;;3.70;99.90;;;;;;4996423;28;20180;-70
2022/01/09 05:54:21;;;;;;;0.37;0.37;;;3.80;99.90;;;;;;4995880;28;20218;-70
2022/01/09 05:56:47;;;;;;;0.30;0.30;;;3.60;99.90;;;;;;4996400;28;20202;-70
2022/01/09 05:59:13;;;;;;;0.30;0.30;;;3.50;99.90;;;;;;4996314;28;20193;-70
2022/01/09 06:01:39;;;;;;;0.30;0.30;;;3.40;99.90;;;;;;4996060;28;20239;-70
2022/01/09 06:04:05;;;;;;;0.40;0.40;;;3.10;99.90;;;;;;4996074;28;20902;-70
2022/01/09 06:06:32;;;;;;;0.30;0.30;;;3.20;99.90;;;;;;4996120;28;20195;-70
2022/01/09 06:08:58;;;;;;;0.32;0.32;;;3.10;99.90;;;;;;4996177;28;20167;-70
2022/01/09 06:11:25;;;;;;;0.40;0.40;;;3.30;99.90;;;;;;4996145;28;20180;-69
2022/01/09 06:13:50;;;;;;;0.40;0.40;;;3.30;99.90;;;;;;4995773;28;20237;-69
2022/01/09 06:16:16;;;;;;;0.40;0.40;;;3.20;99.90;;;;;;4994555;28;20204;-69
2022/01/09 06:18:42;;;;;;;0.30;0.30;;;3.30;99.90;;;;;;4995893;28;20176;-70
2022/01/09 06:21:07;;;;;;;0.30;0.30;;;3.30;99.90;;;;;;4996011;28;20205;-70
2022/01/09 06:23:33;;;;;;;0.30;0.30;;;3.40;99.90;;;;;;4996036;28;20180;-70
2022/01/09 06:25:58;;;;;;;0.40;0.40;;;3.30;99.90;;;;;;4995762;28;20188;-69
2022/01/09 06:28:25;;;;;;;0.30;0.30;;;3.20;99.90;;;;;;4995995;28;20167;-70
2022/01/09 06:30:50;;;;;;;0.30;0.30;;;3.30;99.90;;;;;;4995898;28;20179;-70
2022/01/09 06:33:17;;;;;;;0.30;0.30;;;3.30;99.90;;;;;;4995680;28;20229;-70
2022/01/09 06:35:44;;;;;;;0.30;0.30;;;3.30;99.90;;;;;;4995400;28;20254;-70
2022/01/09 06:38:09;;;;;;;0.30;0.30;;;3.30;99.90;;;;;;4995688;28;20172;-70
2022/01/09 06:40:35;;;;;;;0.30;0.30;;;3.30;99.90;;;;;;4994328;28;20204;-70
2022/01/09 06:43:01;;;;;;;0.30;0.30;;;3.40;99.90;;;;;;4995671;28;20214;-70
2022/01/09 06:45:27;;;;;;;0.30;0.30;;;3.60;99.90;;;;;;4995344;28;20404;-70
2022/01/09 06:47:54;;;;;;;0.30;0.30;;;3.70;99.90;;;;;;4995479;28;20865;-70
2022/01/09 06:50:21;;;;;;;0.30;0.30;;;3.80;99.90;;;;;;4995394;28;20770;-70
2022/01/09 06:52:47;;;;;;;0.30;0.30;;;3.80;99.90;;;;;;4995485;28;20181;-70
2022/01/09 06:55:12;;;;;;;0.35;0.35;;;3.70;99.50;;;;;;4995405;28;20176;-69
2022/01/09 06:57:39;;;;;;;0.40;0.40;;;3.60;99.60;;;;;;4995147;28;20195;-70
2022/01/09 07:00:07;;;;;;;0.40;0.40;;;3.70;99.60;;;;;;4995155;28;20223;-70
2022/01/09 07:02:33;;;;;;;0.30;0.30;;;3.50;99.50;;;;;;4994881;28;20246;-70
2022/01/09 07:04:59;;;;;;;0.30;0.30;;;3.30;99.70;;;;;;4994775;28;20251;-70
2022/01/09 07:07:24;;;;;;;0.30;0.30;;;3.40;99.90;;;;;;4994495;28;20194;-69
2022/01/09 07:09:50;;;;;;;0.40;0.40;;;3.40;99.90;;;;;;4995265;28;20174;-70
2022/01/09 07:12:16;;;;;;;0.30;0.30;;;3.30;99.90;;;;;;4995091;28;20410;-70
2022/01/09 07:14:42;;;;;;;0.30;0.30;;;3.30;99.90;;;;;;4993583;28;20179;-70
2022/01/09 07:17:08;;;;;;;0.30;0.30;;;3.40;99.90;;;;;;4994522;28;20857;-70
2022/01/09 07:19:33;;;;;;;0.30;0.30;;;3.50;99.60;;;;;;4994739;28;20765;-70
2022/01/09 07:21:59;;;;;;;0.30;0.30;;;3.50;99.50;;;;;;4994846;28;20160;-70
2022/01/09 07:24:25;;;;;;;0.30;0.30;;;3.60;99.10;;;;;;4994852;28;20217;-70
2022/01/09 07:26:51;;;;;;;0.40;0.40;;;3.50;98.50;;;;;;4994428;28;20277;-70
2022/01/09 07:29:16;;;;;;;0.30;0.30;;;3.50;98.80;;;;;;4994758;28;20164;-70
2022/01/09 07:31:42;;;;;;;0.30;0.30;;;3.50;99.10;;;;;;4994460;28;20399;-70
2022/01/09 07:34:07;;;;;;;0.30;0.30;;;3.60;99.20;;;;;;4994617;28;20214;-70
2022/01/09 07:36:33;;;;;;;0.40;0.40;;;3.70;99.10;;;;;;4994355;28;20195;-70
2022/01/09 07:38:59;;;;;;;0.30;0.30;;;3.70;98.80;;;;;;4994613;28;20184;-70
2022/01/09 07:41:25;;;;;;;0.40;0.40;;;3.70;98.70;;;;;;4994553;28;20198;-70
2022/01/09 07:43:50;;;;;;;0.30;0.30;;;3.60;98.70;;;;;;4994498;28;20656;-70
2022/01/09 07:46:16;;;;;;;0.40;0.40;;;3.70;98.90;;;;;;4994185;28;20199;-70
2022/01/09 07:48:42;;;;;;;0.40;0.40;;;3.70;98.90;;;;;;4994389;28;20176;-70
2022/01/09 07:51:08;;;;;;;0.30;0.30;;;3.60;98.70;;;;;;4994629;28;20184;-70
2022/01/09 07:53:33;;;;;;;0.30;0.30;;;3.50;98.80;;;;;;4994446;28;20235;-70
2022/01/09 07:55:59;;;;;;;0.40;0.40;;;3.50;99.30;;;;;;4994229;28;20207;-70
2022/01/09 07:58:24;;;;;;;0.40;0.40;;;3.40;99.30;;;;;;4994383;28;20192;-70
2022/01/09 08:00:50;;;;;;;0.40;0.40;;;3.50;99.20;;;;;;4994166;28;20242;-70
2022/01/09 08:03:16;;;;;;;0.30;0.30;;;3.30;98.70;;;;;;4993923;28;20291;-70
2022/01/09 08:05:42;;;;;;;0.40;0.40;;;3.40;98.90;;;;;;4993828;28;20844;-70
2022/01/09 08:08:07;;;;;;;0.30;0.30;;;3.50;98.60;;;;;;4994273;28;20173;-70
2022/01/09 08:10:33;;;;;;;0.30;0.30;;;3.70;98.70;;;;;;4994383;28;20538;-70
2022/01/09 08:13:00;;;;;;;0.40;0.40;;;3.80;98.20;;;;;;4994228;28;20255;-70
2022/01/09 08:15:30;;;;;;;0.30;0.30;;;3.90;98.00;;;;;;4993820;28;20264;-70
2022/01/09 08:17:56;;;;;;;0.40;0.40;;;3.90;98.00;;;;;;4996615;28;20203;-70
2022/01/09 08:20:22;;;;;;;0.38;0.38;;;3.80;97.60;;;;;;4998249;28;20209;-70
2022/01/09 08:22:48;;;;;;;0.40;0.40;;;3.70;97.60;;;;;;4998096;28;20182;-70
2022/01/09 08:25:16;;;;;;;0.30;0.30;;;3.50;98.20;;;;;;4998144;28;20261;-70
2022/01/09 08:27:43;;;;;;;0.40;0.40;;;3.50;98.30;;;;;;4996493;28;20242;-70
2022/01/09 08:30:11;;;;;;;0.30;0.30;;;3.60;98.50;;;;;;4997902;28;20543;-70
2022/01/09 08:32:37;;;;;;;0.30;0.30;;;3.50;98.20;;;;;;4997965;28;20254;-70
2022/01/09 08:35:04;;;;;;;0.30;0.30;;;3.60;98.40;;;;;;4997976;28;20183;-70
2022/01/09 08:37:30;;;;;;;0.32;0.32;;;3.70;98.70;;;;;;4997331;28;20277;-70
2022/01/09 08:39:56;;;;;;;0.30;0.30;;;4.00;98.80;;;;;;4996889;28;20634;-70
2022/01/09 08:42:22;;;;;;;0.40;0.40;;;3.90;98.20;;;;;;4997412;28;20267;-68
2022/01/09 08:44:48;;;;;;;0.37;0.37;;;4.00;98.30;;;;;;4997680;28;20222;-69
2022/01/09 08:47:13;;;;;;;0.40;0.40;;;3.90;98.30;;;;;;4996588;28;20429;-69
2022/01/09 08:49:39;;;;;;;0.40;0.40;;;3.80;98.60;;;;;;4996006;28;20213;-68
2022/01/09 08:52:05;;;;;;;0.30;0.30;;;4.00;98.70;;;;;;4995578;28;20520;-69
2022/01/09 08:54:31;;;;;;;0.30;0.30;;;3.90;98.40;;;;;;4997660;28;20172;-68
2022/01/09 08:56:57;;;;;;;0.30;0.30;;;3.90;98.50;;;;;;4997506;28;20776;-69
2022/01/09 08:59:23;;;;;;;0.32;0.32;;;4.20;98.50;;;;;;4997897;28;20191;-69
2022/01/09 09:01:49;;;;;;;0.30;0.30;;;4.10;98.10;;;;;;4997723;28;20207;-69
2022/01/09 09:04:15;;;;;;;0.40;0.40;;;4.10;98.30;;;;;;4997775;28;20434;-69
2022/01/09 09:06:42;;;;;;;0.30;0.30;;;4.10;98.40;;;;;;4995787;28;20211;-69
2022/01/09 09:09:08;;;;;;;0.30;0.30;;;4.00;98.70;;;;;;4994270;28;20172;-69
2022/01/09 09:11:35;;;;;;;0.32;0.32;;;4.10;98.80;;;;;;4995244;28;20180;-68
2022/01/09 09:14:02;;;;;;;0.40;0.40;;;3.80;98.80;;;;;;4996640;28;20180;-72
2022/01/09 09:16:28;;;;;;;0.30;0.30;;;3.70;98.70;;;;;;4995494;28;20549;-69
2022/01/09 09:18:54;;;;;;;0.30;0.30;;;3.90;99.20;;;;;;4997486;28;20519;-69
2022/01/09 09:21:20;;;;;;;0.30;0.30;;;3.90;99.10;;;;;;4997663;28;20196;-68
2022/01/09 09:23:45;;;;;;;0.30;0.30;;;3.80;98.50;;;;;;4996904;28;20641;-68
2022/01/09 09:26:12;;;;;;;0.30;0.30;;;3.70;98.40;;;;;;4996965;28;20188;-68
2022/01/09 09:28:38;;;;;;;0.30;0.30;;;3.80;98.40;;;;;;4996021;28;20222;-68
2022/01/09 09:31:04;;;;;;;0.30;0.30;;;3.90;98.50;;;;;;4996985;28;20180;-68
2022/01/09 09:33:30;;;;;;;0.40;0.40;;;3.80;98.50;;;;;;4997287;28;20404;-68
2022/01/09 09:36:00;;;;;;;0.30;0.30;;;3.90;98.30;;;;;;4996892;28;20203;-68
2022/01/09 09:38:26;;;;;;;0.40;0.40;;;4.10;98.60;;;;;;4997330;28;20172;-68
2022/01/09 09:40:52;;;;;;;0.40;0.40;;;4.40;98.20;;;;;;4996614;28;20571;-68
2022/01/09 09:43:19;;;;;;;0.40;0.40;;;4.30;97.20;;;;;;4996548;28;20180;-68
2022/01/09 09:45:45;;;;;;;0.40;0.40;;;3.90;97.70;;;;;;4996024;28;20211;-69
2022/01/09 09:48:11;;;;;;;0.40;0.40;;;4.00;98.10;;;;;;4995721;28;20183;-68
2022/01/09 09:50:38;;;;;;;0.30;0.30;;;4.20;98.20;;;;;;4996477;28;20172;-72
2022/01/09 09:53:04;;;;;;;0.30;0.30;;;4.30;98.00;;;;;;4996591;28;20168;-71
2022/01/09 09:55:30;;;;;;;0.30;0.30;;;4.40;97.80;;;;;;4995653;28;20183;-72
2022/01/09 09:57:56;;;;;;;0.40;0.40;;;4.40;97.80;;;;;;4996554;28;20411;-73
2022/01/09 10:00:23;;;;;;;0.32;0.32;;;4.50;97.60;;;;;;4996560;28;20196;-73
2022/01/09 10:02:49;;;;;;;0.30;0.30;;;4.50;97.30;;;;;;4996506;28;20612;-71
2022/01/09 10:05:33;;;;;;;0.40;0.40;;;4.60;97.50;;;;;;4996417;28;20235;-71
2022/01/09 10:08:11;;;;;;;0.40;0.40;;;4.50;97.10;;;;;;4994890;28;20226;-72
2022/01/09 10:10:38;;;;;;;0.40;0.40;;;4.40;97.50;;;;;;4996110;28;20206;-74
2022/01/09 10:13:15;;;;;;;0.40;0.40;;;4.60;97.60;;;;;;4996368;28;20270;-71
2022/01/09 10:15:56;;;;;;;0.40;0.40;;;4.90;97.60;;;;;;4996001;28;20172;-72
2022/01/09 10:18:45;;;;;;;0.30;0.30;;;4.90;97.50;;;;;;4996272;28;20531;-72
2022/01/09 10:21:14;;;;;;;0.30;0.30;;;4.80;97.20;;;;;;4996185;28;20213;-72
2022/01/09 10:24:07;;;;;;;0.40;0.40;;;5.00;97.20;;;;;;4996281;28;20172;-72
2022/01/09 10:26:35;;;;;;;0.40;0.40;;;5.20;96.90;;;;;;4995645;28;20200;-72
2022/01/09 10:29:02;;;;;;;0.40;0.40;;;5.20;96.30;;;;;;4995975;28;20176;-73
2022/01/09 10:31:28;;;;;;;0.40;0.40;;;5.20;96.40;;;;;;4995930;28;20251;-74
2022/01/09 10:34:06;;;;;;;0.40;0.40;;;4.70;96.00;;;;;;4994475;28;20184;-71
2022/01/09 10:36:40;;;;;;;0.30;0.30;;;4.70;96.50;;;;;;4988038;28;20188;-71
2022/01/09 10:39:09;;;;;;;0.40;0.40;;;4.70;96.30;;;;;;4995133;28;20187;-71
2022/01/09 10:41:58;;;;;;;0.38;0.38;;;4.50;96.40;;;;;;4995469;28;20200;-70
2022/01/09 10:44:35;;;;;;;0.40;0.40;;;4.70;96.80;;;;;;4996083;28;20708;-71
2022/01/09 10:47:03;;;;;;;0.32;0.32;;;4.80;96.80;;;;;;4995318;28;20192;-69
2022/01/09 10:49:36;;;;;;;0.30;0.30;;;4.90;97.00;;;;;;4995544;28;20167;-69
2022/01/09 10:52:15;;;;;;;0.30;0.30;;;5.10;97.00;;;;;;4994200;28;20187;-68
2022/01/09 10:54:42;;;;;;;0.30;0.30;;;4.90;96.80;;;;;;4995336;28;20176;-69
2022/01/09 10:57:23;;;;;;;0.35;0.35;;;5.10;97.10;;;;;;4993880;28;20512;-70
2022/01/09 10:59:49;;;;;;;0.30;0.30;;;5.10;96.80;;;;;;4995817;28;20234;-69
2022/01/09 11:02:16;;;;;;;0.30;0.30;;;5.20;96.60;;;;;;4995280;28;20168;-67
2022/01/09 11:04:48;;;;;;;0.40;0.40;;;5.20;96.50;;;;;;4995238;28;20191;-68
2022/01/09 11:07:15;;;;;;;0.50;0.50;;;5.20;96.60;;;;;;4994202;28;20191;-69
2022/01/09 11:09:46;;;;;;;0.40;0.40;;;5.20;96.90;;;;;;4993404;28;20368;-67
2022/01/09 11:12:17;;;;;;;0.30;0.30;;;5.30;96.90;;;;;;4994400;28;20187;-68
2022/01/09 11:14:43;;;;;;;0.30;0.30;;;5.40;96.90;;;;;;4994264;28;20178;-67
2022/01/09 11:17:10;;;;;;;0.40;0.40;;;5.40;96.90;;;;;;4994080;28;20266;-71
2022/01/09 11:19:37;;;;;;;0.40;0.40;;;5.50;96.50;;;;;;4993907;28;20634;-70
2022/01/09 11:22:06;;;;;;;0.40;0.40;;;5.40;96.10;;;;;;4995168;28;20628;-68
2022/01/09 11:24:50;;;;;;;0.40;0.40;;;5.50;96.20;;;;;;4995329;28;20200;-67
2022/01/09 11:27:25;;;;;;;0.40;0.40;;;5.60;96.30;;;;;;4994678;28;20267;-69
2022/01/09 11:30:14;;;;;;;0.30;0.30;;;5.60;96.70;;;;;;4992601;28;20649;-68
2022/01/09 11:33:07;;;;;;;0.40;0.40;;;5.50;95.90;;;;;;4993778;28;20649;-67
2022/01/09 11:35:54;;;;;;;0.30;0.30;;;5.30;96.20;;;;;;4994413;28;20243;-68
2022/01/09 11:38:50;;;;;;;0.40;0.40;;;5.30;96.40;;;;;;4994871;28;20161;-68
2022/01/09 11:41:26;;;;;;;0.30;0.30;;;5.20;96.30;;;;;;4994889;28;20191;-68
2022/01/09 11:43:59;;;;;;;0.30;0.30;;;4.90;96.60;;;;;;4994798;28;20172;-68
2022/01/09 11:46:27;;;;;;;0.30;0.30;;;4.60;97.10;;;;;;4994174;28;20201;-66
2022/01/09 11:48:53;;;;;;;0.40;0.40;;;4.70;97.50;;;;;;4994796;28;20714;-67
2022/01/09 11:51:20;;;;;;;0.30;0.30;;;4.80;97.40;;;;;;4994492;28;20250;-68
2022/01/09 11:54:12;;;;;;;0.30;0.30;;;4.90;97.50;;;;;;4993407;28;20660;-68
2022/01/09 11:57:06;;;;;;;0.30;0.30;;;5.10;96.90;;;;;;4994098;28;20580;-68
2022/01/09 11:59:48;;;;;;;0.40;0.40;;;5.20;96.50;;;;;;4994471;28;20187;-68
2022/01/09 12:02:16;;;;;;;0.32;0.32;;;5.10;96.40;;;;;;4994371;28;20208;-67
2022/01/09 12:04:42;;;;;;;0.30;0.30;;;5.20;96.50;;;;;;4994028;28;20669;-68
2022/01/09 12:07:21;;;;;;;0.30;0.30;;;5.10;96.30;;;;;;4992718;28;20207;-66
2022/01/09 12:09:50;;;;;;;0.40;0.40;;;4.90;96.30;;;;;;4993136;28;20423;-68
2022/01/09 12:12:22;;;;;;;0.30;0.30;;;5.00;96.60;;;;;;4992990;28;20183;-68
2022/01/09 12:14:54;;;;;;;0.52;0.52;;;5.10;96.70;;;;;;4994160;28;20168;-68
2022/01/09 12:17:28;;;;;;;0.30;0.30;;;5.10;96.70;;;;;;4993934;28;20547;-68
2022/01/09 12:20:26;;;;;;;0.40;0.40;;;5.10;96.70;;;;;;4994080;28;20179;-68
2022/01/09 12:23:06;;;;;;;0.30;0.30;;;5.00;96.50;;;;;;4992214;28;20662;-68
2022/01/09 12:25:35;;;;;;;0.40;0.40;;;4.80;96.40;;;;;;4992525;28;20221;-69
2022/01/09 12:28:12;;;;;;;0.35;0.35;;;4.80;96.70;;;;;;4990943;28;20524;-68
2022/01/09 12:33:06;;;;;;;0.30;0.30;;;4.90;97.00;;;;;;4992588;28;20243;-68
2022/01/09 12:35:33;;;;;;;0.30;0.30;;;4.90;96.90;;;;;;4993171;28;20666;-67
2022/01/09 12:38:00;;;;;;;0.40;0.40;;;4.50;97.20;;;;;;4993833;28;20769;-68
2022/01/09 12:40:28;;;;;;;0.30;0.30;;;4.40;97.60;;;;;;4993783;28;20662;-68
2022/01/09 12:42:57;;;;;;;0.40;0.40;;;4.40;98.00;;;;;;4993829;28;20175;-67
2022/01/09 12:45:50;;;;;;;0.30;0.30;;;4.50;98.20;;;;;;4993576;28;20183;-68
2022/01/09 12:48:27;;;;;;;0.40;0.40;;;4.50;98.10;;;;;;4992876;28;20183;-67
2022/01/09 12:50:54;;;;;;;0.30;0.30;;;4.40;97.90;;;;;;4993700;28;20227;-68
2022/01/09 12:53:27;;;;;;;0.40;0.40;;;4.30;98.10;;;;;;4993737;28;20267;-68
2022/01/09 12:55:58;;;;;;;0.38;0.38;;;4.20;98.50;;;;;;4993665;28;20228;-67
2022/01/09 12:58:27;;;;;;;0.40;0.40;;;4.10;98.60;;;;;;4993665;28;20168;-68
2022/01/09 13:00:53;;;;;;;0.32;0.32;;;3.90;98.80;;;;;;4993798;28;20214;-68
2022/01/09 13:03:30;;;;;;;0.30;0.30;;;4.10;99.00;;;;;;4994972;28;20589;-66
2022/01/09 13:06:02;;;;;;;0.40;0.40;;;4.30;98.80;;;;;;4997186;28;20215;-67
2022/01/09 13:08:29;;;;;;;0.40;0.40;;;4.50;98.70;;;;;;4997239;28;20175;-66
2022/01/09 13:11:01;;;;;;;0.30;0.30;;;4.60;98.50;;;;;;4997127;28;20263;-68